.
Local / Fort Wayne - NE Ind.

U N D E R   C O N S T R U C T I O N

Local Weather
Fort Wayne – NE Indiana

Northern Indiana (IWX) Radar

Latest IWX NEXRAD
Base Reflectivity



Latest IWX NEXRAD
Base Velocity

Indiana-Ohio Visible Satellite

For infrared and water vapor imagery, see Great Lakes - Midwest.

Current Conditions

Recent report from the Fort Wayne International Airport

Apr 07, 2020 - 07:54 PM EDT / 2020.04.07 2354 UTC


The skies are clear. The temperature is 70.0 F (21.1 C) and the dew point is 57.9 F (14.4 C), giving a relative humidity of 65%. The barometric pressure is 29.64 in. Hg (1003 hPa) and falling. The wind is from the SW (220 degrees) at 12 MPH (10 KT), and the visibility is 10 mile(s).

KFWA 072354Z 22010KT 10SM CLR 21/14 A2964 RMK AO2 SLP033 T02110144 10250 20211 58017

Local Weather — Contents

Local Weather — Links

CoCoRaHS
IN-AL-39
A2 Web Hosting
Creative Commons License
GoDaddy
search engine by freefind advanced

loaded 2020-04-07 20:10:18 • last modified 2017-02-11 13:27:36
Privacy PolicyDisclaimer
• wx.awcolley.com is powered by PmWiki v.2002016 •
• all content (unless otherwise noted) © 2020 A W Colley